sensor_id;sensor_type;location;lat;lon;timestamp;temperature;humidity
19106;DHT22;9685;54.338;18.672;2023-10-13T00:01:09;9.70;98.30
19106;DHT22;9685;54.338;18.672;2023-10-13T00:03:38;9.70;97.30
19106;DHT22;9685;54.338;18.672;2023-10-13T00:06:06;9.60;98.30
19106;DHT22;9685;54.338;18.672;2023-10-13T00:08:35;9.50;99.90
19106;DHT22;9685;54.338;18.672;2023-10-13T00:11:04;9.50;99.90
19106;DHT22;9685;54.338;18.672;2023-10-13T00:13:31;9.40;99.90
19106;DHT22;9685;54.338;18.672;2023-10-13T00:16:08;9.30;99.90
19106;DHT22;9685;54.338;18.672;2023-10-13T00:18:42;9.20;99.90
19106;DHT22;9685;54.338;18.672;2023-10-13T00:21:10;9.20;99.90
19106;DHT22;9685;54.338;18.672;2023-10-13T00:23:41;9.10;99.90
19106;DHT22;9685;54.338;18.672;2023-10-13T00:26:18;9.10;99.90
19106;DHT22;9685;54.338;18.672;2023-10-13T00:28:48;9.00;99.90
19106;DHT22;9685;54.338;18.672;2023-10-13T00:31:24;9.00;99.90
19106;DHT22;9685;54.338;18.672;2023-10-13T00:33:57;9.00;99.90
19106;DHT22;9685;54.338;18.672;2023-10-13T00:36:30;9.00;99.90
19106;DHT22;9685;54.338;18.672;2023-10-13T00:39:01;9.10;99.90
19106;DHT22;9685;54.338;18.672;2023-10-13T00:41:30;9.10;99.90
19106;DHT22;9685;54.338;18.672;2023-10-13T00:44:16;9.00;99.90
19106;DHT22;9685;54.338;18.672;2023-10-13T00:46:44;9.00;99.90
19106;DHT22;9685;54.338;18.672;2023-10-13T00:49:12;9.00;99.90
19106;DHT22;9685;54.338;18.672;2023-10-13T00:51:41;9.00;99.90
19106;DHT22;9685;54.338;18.672;2023-10-13T00:54:14;9.00;99.90
19106;DHT22;9685;54.338;18.672;2023-10-13T00:56:46;9.00;99.90
19106;DHT22;9685;54.338;18.672;2023-10-13T00:59:15;8.90;99.90
19106;DHT22;9685;54.338;18.672;2023-10-13T01:01:42;8.90;99.90
19106;DHT22;9685;54.338;18.672;2023-10-13T01:04:09;8.80;99.90
19106;DHT22;9685;54.338;18.672;2023-10-13T01:06:38;8.70;99.90
19106;DHT22;9685;54.338;18.672;2023-10-13T01:09:06;8.70;99.90
19106;DHT22;9685;54.338;18.672;2023-10-13T01:11:44;8.70;99.90
19106;DHT22;9685;54.338;18.672;2023-10-13T01:14:10;8.80;99.90
19106;DHT22;9685;54.338;18.672;2023-10-13T01:16:37;8.80;99.90
19106;DHT22;9685;54.338;18.672;2023-10-13T01:19:09;8.80;99.90
19106;DHT22;9685;54.338;18.672;2023-10-13T01:21:38;8.90;99.90
19106;DHT22;9685;54.338;18.672;2023-10-13T01:24:08;8.90;99.90
19106;DHT22;9685;54.338;18.672;2023-10-13T01:26:36;9.00;99.90
19106;DHT22;9685;54.338;18.672;2023-10-13T01:29:05;9.00;99.90
19106;DHT22;9685;54.338;18.672;2023-10-13T01:31:38;9.10;99.90
19106;DHT22;9685;54.338;18.672;2023-10-13T01:34:11;9.10;99.90
19106;DHT22;9685;54.338;18.672;2023-10-13T01:36:39;9.00;99.90
19106;DHT22;9685;54.338;18.672;2023-10-13T01:39:07;8.90;99.90
19106;DHT22;9685;54.338;18.672;2023-10-13T01:41:36;8.90;99.90
19106;DHT22;9685;54.338;18.672;2023-10-13T01:44:04;8.80;99.90
19106;DHT22;9685;54.338;18.672;2023-10-13T01:46:32;8.90;99.90
19106;DHT22;9685;54.338;18.672;2023-10-13T01:48:58;8.80;99.90
19106;DHT22;9685;54.338;18.672;2023-10-13T01:51:25;8.80;99.90
19106;DHT22;9685;54.338;18.672;2023-10-13T01:53:53;8.70;99.90
19106;DHT22;9685;54.338;18.672;2023-10-13T01:56:25;8.60;99.90
19106;DHT22;9685;54.338;18.672;2023-10-13T01:58:55;8.50;99.90
19106;DHT22;9685;54.338;18.672;2023-10-13T02:01:21;8.40;99.90
19106;DHT22;9685;54.338;18.672;2023-10-13T02:03:52;8.40;99.90
19106;DHT22;9685;54.338;18.672;2023-10-13T02:06:27;8.30;99.90
19106;DHT22;9685;54.338;18.672;2023-10-13T02:08:58;8.30;99.90
19106;DHT22;9685;54.338;18.672;2023-10-13T02:11:37;8.30;99.90
19106;DHT22;9685;54.338;18.672;2023-10-13T02:14:03;8.30;99.90
19106;DHT22;9685;54.338;18.672;2023-10-13T02:16:30;8.20;99.90
19106;DHT22;9685;54.338;18.672;2023-10-13T02:18:56;8.20;99.90
19106;DHT22;9685;54.338;18.672;2023-10-13T02:21:30;8.20;99.90
19106;DHT22;9685;54.338;18.672;2023-10-13T02:23:57;8.20;99.90
19106;DHT22;9685;54.338;18.672;2023-10-13T02:26:30;8.10;99.90
19106;DHT22;9685;54.338;18.672;2023-10-13T02:28:59;8.00;99.90
19106;DHT22;9685;54.338;18.672;2023-10-13T02:31:35;8.00;99.90
19106;DHT22;9685;54.338;18.672;2023-10-13T02:34:01;7.90;99.90
19106;DHT22;9685;54.338;18.672;2023-10-13T02:36:32;7.90;99.90
19106;DHT22;9685;54.338;18.672;2023-10-13T02:39:02;7.90;99.90
19106;DHT22;9685;54.338;18.672;2023-10-13T02:41:33;7.80;99.90
19106;DHT22;9685;54.338;18.672;2023-10-13T02:44:04;7.80;99.90
19106;DHT22;9685;54.338;18.672;2023-10-13T02:46:33;7.90;99.90
19106;DHT22;9685;54.338;18.672;2023-10-13T02:49:05;7.90;99.90
19106;DHT22;9685;54.338;18.672;2023-10-13T02:51:35;7.90;99.90
19106;DHT22;9685;54.338;18.672;2023-10-13T02:54:03;7.90;99.90
19106;DHT22;9685;54.338;18.672;2023-10-13T02:56:35;7.90;99.90
19106;DHT22;9685;54.338;18.672;2023-10-13T02:59:03;7.90;99.90
19106;DHT22;9685;54.338;18.672;2023-10-13T03:01:32;7.90;99.90
19106;DHT22;9685;54.338;18.672;2023-10-13T03:04:01;7.80;99.90
19106;DHT22;9685;54.338;18.672;2023-10-13T03:06:27;7.70;99.90
19106;DHT22;9685;54.338;18.672;2023-10-13T03:08:59;7.70;99.90
19106;DHT22;9685;54.338;18.672;2023-10-13T03:11:39;7.60;99.90
19106;DHT22;9685;54.338;18.672;2023-10-13T03:14:09;7.60;99.90
19106;DHT22;9685;54.338;18.672;2023-10-13T03:16:49;7.60;99.90
19106;DHT22;9685;54.338;18.672;2023-10-13T03:19:16;7.60;99.90
19106;DHT22;9685;54.338;18.672;2023-10-13T03:21:44;7.60;99.90
19106;DHT22;9685;54.338;18.672;2023-10-13T03:24:20;7.60;99.90
19106;DHT22;9685;54.338;18.672;2023-10-13T03:26:48;7.60;99.90
19106;DHT22;9685;54.338;18.672;2023-10-13T03:29:19;7.60;99.90
19106;DHT22;9685;54.338;18.672;2023-10-13T03:31:47;7.60;99.90
19106;DHT22;9685;54.338;18.672;2023-10-13T03:34:32;7.60;99.90
19106;DHT22;9685;54.338;18.672;2023-10-13T03:37:00;7.60;99.90
19106;DHT22;9685;54.338;18.672;2023-10-13T03:39:36;7.60;99.90
19106;DHT22;9685;54.338;18.672;2023-10-13T03:42:03;7.50;99.90
19106;DHT22;9685;54.338;18.672;2023-10-13T03:44:36;7.60;99.90
19106;DHT22;9685;54.338;18.672;2023-10-13T03:47:04;7.50;99.90
19106;DHT22;9685;54.338;18.672;2023-10-13T03:49:44;7.60;99.90
19106;DHT22;9685;54.338;18.672;2023-10-13T03:52:11;7.60;99.90
19106;DHT22;9685;54.338;18.672;2023-10-13T03:54:39;7.50;99.90
19106;DHT22;9685;54.338;18.672;2023-10-13T03:57:06;7.50;99.90
19106;DHT22;9685;54.338;18.672;2023-10-13T03:59:38;7.50;99.90
19106;DHT22;9685;54.338;18.672;2023-10-13T04:02:12;7.50;99.90
19106;DHT22;9685;54.338;18.672;2023-10-13T04:04:43;7.50;99.90
19106;DHT22;9685;54.338;18.672;2023-10-13T04:07:14;7.40;99.90
19106;DHT22;9685;54.338;18.672;2023-10-13T04:10:06;7.50;99.90
19106;DHT22;9685;54.338;18.672;2023-10-13T04:12:50;7.40;99.90
19106;DHT22;9685;54.338;18.672;2023-10-13T04:15:35;7.30;99.90
19106;DHT22;9685;54.338;18.672;2023-10-13T04:18:27;7.20;99.90
19106;DHT22;9685;54.338;18.672;2023-10-13T04:21:12;7.20;99.90
19106;DHT22;9685;54.338;18.672;2023-10-13T04:24:06;7.20;99.90
19106;DHT22;9685;54.338;18.672;2023-10-13T04:26:48;7.20;99.90
19106;DHT22;9685;54.338;18.672;2023-10-13T04:29:44;7.20;99.90
19106;DHT22;9685;54.338;18.672;2023-10-13T04:32:24;7.20;99.90
19106;DHT22;9685;54.338;18.672;2023-10-13T04:35:00;7.20;99.90
19106;DHT22;9685;54.338;18.672;2023-10-13T04:37:34;7.20;99.90
19106;DHT22;9685;54.338;18.672;2023-10-13T04:40:15;7.10;99.90
19106;DHT22;9685;54.338;18.672;2023-10-13T04:42:43;7.20;99.90
19106;DHT22;9685;54.338;18.672;2023-10-13T04:45:19;7.20;99.90
19106;DHT22;9685;54.338;18.672;2023-10-13T04:48:06;7.10;99.90
19106;DHT22;9685;54.338;18.672;2023-10-13T04:51:00;7.10;99.90
19106;DHT22;9685;54.338;18.672;2023-10-13T04:54:09;7.10;99.90
19106;DHT22;9685;54.338;18.672;2023-10-13T04:56:51;7.10;99.90
19106;DHT22;9685;54.338;18.672;2023-10-13T04:59:45;7.10;99.90
19106;DHT22;9685;54.338;18.672;2023-10-13T05:02:35;7.10;99.90
19106;DHT22;9685;54.338;18.672;2023-10-13T05:05:20;7.10;99.90
19106;DHT22;9685;54.338;18.672;2023-10-13T05:08:04;7.10;99.90
19106;DHT22;9685;54.338;18.672;2023-10-13T05:10:48;7.10;99.90
19106;DHT22;9685;54.338;18.672;2023-10-13T05:13:33;7.10;99.90
19106;DHT22;9685;54.338;18.672;2023-10-13T05:16:17;7.10;99.90
19106;DHT22;9685;54.338;18.672;2023-10-13T05:19:01;7.10;99.90
19106;DHT22;9685;54.338;18.672;2023-10-13T05:21:46;7.10;99.90
19106;DHT22;9685;54.338;18.672;2023-10-13T05:24:31;7.10;99.90
19106;DHT22;9685;54.338;18.672;2023-10-13T05:27:15;7.10;99.90
19106;DHT22;9685;54.338;18.672;2023-10-13T05:29:59;7.10;99.90
19106;DHT22;9685;54.338;18.672;2023-10-13T05:32:43;7.10;99.90
19106;DHT22;9685;54.338;18.672;2023-10-13T05:35:30;7.10;99.90
19106;DHT22;9685;54.338;18.672;2023-10-13T05:38:16;7.10;99.90
19106;DHT22;9685;54.338;18.672;2023-10-13T05:41:02;7.10;99.90
19106;DHT22;9685;54.338;18.672;2023-10-13T05:43:47;7.10;99.90
19106;DHT22;9685;54.338;18.672;2023-10-13T05:46:31;7.10;99.90
19106;DHT22;9685;54.338;18.672;2023-10-13T05:49:49;7.10;99.90
19106;DHT22;9685;54.338;18.672;2023-10-13T05:52:16;7.20;99.90
19106;DHT22;9685;54.338;18.672;2023-10-13T05:55:07;7.20;99.90
19106;DHT22;9685;54.338;18.672;2023-10-13T05:57:51;7.30;99.90
19106;DHT22;9685;54.338;18.672;2023-10-13T06:00:40;7.40;99.90
19106;DHT22;9685;54.338;18.672;2023-10-13T06:03:24;7.50;99.90
19106;DHT22;9685;54.338;18.672;2023-10-13T06:06:09;7.50;99.90
19106;DHT22;9685;54.338;18.672;2023-10-13T06:08:53;7.50;99.90
19106;DHT22;9685;54.338;18.672;2023-10-13T06:11:38;7.50;99.90
19106;DHT22;9685;54.338;18.672;2023-10-13T06:14:23;7.60;99.90
19106;DHT22;9685;54.338;18.672;2023-10-13T06:17:07;7.60;99.90
19106;DHT22;9685;54.338;18.672;2023-10-13T06:19:51;7.60;99.90
19106;DHT22;9685;54.338;18.672;2023-10-13T06:22:35;7.70;99.90
19106;DHT22;9685;54.338;18.672;2023-10-13T06:25:19;7.80;99.90
19106;DHT22;9685;54.338;18.672;2023-10-13T06:28:08;7.80;99.90
19106;DHT22;9685;54.338;18.672;2023-10-13T06:30:57;7.90;99.90
19106;DHT22;9685;54.338;18.672;2023-10-13T06:33:26;8.00;99.90
19106;DHT22;9685;54.338;18.672;2023-10-13T06:35:56;8.10;99.90
19106;DHT22;9685;54.338;18.672;2023-10-13T06:38:23;8.30;99.90
19106;DHT22;9685;54.338;18.672;2023-10-13T06:40:56;8.30;99.90
19106;DHT22;9685;54.338;18.672;2023-10-13T06:43:25;8.50;99.90
19106;DHT22;9685;54.338;18.672;2023-10-13T06:45:59;8.60;99.90
19106;DHT22;9685;54.338;18.672;2023-10-13T06:48:27;8.70;99.90
19106;DHT22;9685;54.338;18.672;2023-10-13T06:50:58;8.80;99.90
19106;DHT22;9685;54.338;18.672;2023-10-13T06:53:30;8.90;99.90
19106;DHT22;9685;54.338;18.672;2023-10-13T06:56:02;9.00;99.90
19106;DHT22;9685;54.338;18.672;2023-10-13T06:58:33;9.20;99.90
19106;DHT22;9685;54.338;18.672;2023-10-13T07:01:06;9.30;99.90
19106;DHT22;9685;54.338;18.672;2023-10-13T07:03:33;9.40;99.90
19106;DHT22;9685;54.338;18.672;2023-10-13T07:05:59;9.50;99.90
19106;DHT22;9685;54.338;18.672;2023-10-13T07:08:26;9.50;99.90
19106;DHT22;9685;54.338;18.672;2023-10-13T07:10:56;9.60;99.90
19106;DHT22;9685;54.338;18.672;2023-10-13T07:13:30;9.70;99.90
19106;DHT22;9685;54.338;18.672;2023-10-13T07:16:04;9.80;99.90
19106;DHT22;9685;54.338;18.672;2023-10-13T07:18:33;9.90;99.90
19106;DHT22;9685;54.338;18.672;2023-10-13T07:21:03;10.00;99.90
19106;DHT22;9685;54.338;18.672;2023-10-13T07:23:36;10.00;99.90
19106;DHT22;9685;54.338;18.672;2023-10-13T07:26:04;10.20;99.90
19106;DHT22;9685;54.338;18.672;2023-10-13T07:28:34;10.30;99.90
19106;DHT22;9685;54.338;18.672;2023-10-13T07:31:12;10.40;99.90
19106;DHT22;9685;54.338;18.672;2023-10-13T07:33:40;10.50;99.90
19106;DHT22;9685;54.338;18.672;2023-10-13T07:36:09;10.70;99.90
19106;DHT22;9685;54.338;18.672;2023-10-13T07:38:44;10.70;99.90
19106;DHT22;9685;54.338;18.672;2023-10-13T07:41:14;10.80;99.90
19106;DHT22;9685;54.338;18.672;2023-10-13T07:43:43;10.90;99.90
19106;DHT22;9685;54.338;18.672;2023-10-13T07:46:12;11.00;99.90
19106;DHT22;9685;54.338;18.672;2023-10-13T07:48:40;11.10;99.90
19106;DHT22;9685;54.338;18.672;2023-10-13T07:51:11;11.20;99.90
19106;DHT22;9685;54.338;18.672;2023-10-13T07:53:42;11.30;99.90
19106;DHT22;9685;54.338;18.672;2023-10-13T07:56:09;11.40;99.90
19106;DHT22;9685;54.338;18.672;2023-10-13T07:58:38;11.60;99.90
19106;DHT22;9685;54.338;18.672;2023-10-13T08:01:15;11.70;99.90
19106;DHT22;9685;54.338;18.672;2023-10-13T08:03:44;11.80;99.90
19106;DHT22;9685;54.338;18.672;2023-10-13T08:06:11;11.90;99.90
19106;DHT22;9685;54.338;18.672;2023-10-13T08:08:54;11.90;99.90
19106;DHT22;9685;54.338;18.672;2023-10-13T08:11:32;12.00;99.90
19106;DHT22;9685;54.338;18.672;2023-10-13T08:14:02;12.10;99.90
19106;DHT22;9685;54.338;18.672;2023-10-13T08:16:39;12.10;99.90
19106;DHT22;9685;54.338;18.672;2023-10-13T08:19:18;12.20;99.90
19106;DHT22;9685;54.338;18.672;2023-10-13T08:21:47;12.30;99.90
19106;DHT22;9685;54.338;18.672;2023-10-13T08:24:17;12.40;99.90
19106;DHT22;9685;54.338;18.672;2023-10-13T08:26:51;12.50;99.40
19106;DHT22;9685;54.338;18.672;2023-10-13T08:29:24;12.60;95.90
19106;DHT22;9685;54.338;18.672;2023-10-13T08:32:09;12.60;94.90
19106;DHT22;9685;54.338;18.672;2023-10-13T08:35:01;12.70;91.20
19106;DHT22;9685;54.338;18.672;2023-10-13T08:37:48;12.70;88.70
19106;DHT22;9685;54.338;18.672;2023-10-13T08:40:27;12.80;84.60
19106;DHT22;9685;54.338;18.672;2023-10-13T08:43:12;12.80;83.60
19106;DHT22;9685;54.338;18.672;2023-10-13T08:45:40;12.90;85.20
19106;DHT22;9685;54.338;18.672;2023-10-13T08:48:21;12.90;81.40
19106;DHT22;9685;54.338;18.672;2023-10-13T08:50:57;13.00;80.60
19106;DHT22;9685;54.338;18.672;2023-10-13T08:53:32;13.00;79.00
19106;DHT22;9685;54.338;18.672;2023-10-13T08:56:02;13.00;79.10
19106;DHT22;9685;54.338;18.672;2023-10-13T08:58:35;13.10;75.30
19106;DHT22;9685;54.338;18.672;2023-10-13T09:01:20;13.10;72.90
19106;DHT22;9685;54.338;18.672;2023-10-13T09:04:03;13.00;72.50
19106;DHT22;9685;54.338;18.672;2023-10-13T09:06:50;13.00;73.40
19106;DHT22;9685;54.338;18.672;2023-10-13T09:09:46;13.00;74.10
19106;DHT22;9685;54.338;18.672;2023-10-13T09:12:30;13.00;74.40
19106;DHT22;9685;54.338;18.672;2023-10-13T09:15:07;13.00;76.40
19106;DHT22;9685;54.338;18.672;2023-10-13T09:17:46;13.10;73.80
19106;DHT22;9685;54.338;18.672;2023-10-13T09:20:28;13.00;71.40
19106;DHT22;9685;54.338;18.672;2023-10-13T09:23:08;13.00;73.40
19106;DHT22;9685;54.338;18.672;2023-10-13T09:25:36;13.00;76.60
19106;DHT22;9685;54.338;18.672;2023-10-13T09:28:09;13.00;78.40
19106;DHT22;9685;54.338;18.672;2023-10-13T09:30:44;13.10;80.60
19106;DHT22;9685;54.338;18.672;2023-10-13T09:33:10;13.10;78.10
19106;DHT22;9685;54.338;18.672;2023-10-13T09:35:44;13.10;76.20
19106;DHT22;9685;54.338;18.672;2023-10-13T09:38:15;13.10;79.20
19106;DHT22;9685;54.338;18.672;2023-10-13T09:40:43;13.00;80.10
19106;DHT22;9685;54.338;18.672;2023-10-13T09:43:16;13.10;80.30
19106;DHT22;9685;54.338;18.672;2023-10-13T09:45:47;13.00;81.10
19106;DHT22;9685;54.338;18.672;2023-10-13T09:48:32;13.00;81.00
19106;DHT22;9685;54.338;18.672;2023-10-13T09:51:02;13.00;81.70
19106;DHT22;9685;54.338;18.672;2023-10-13T09:53:30;13.00;97.80
19106;DHT22;9685;54.338;18.672;2023-10-13T09:56:03;13.10;80.30
19106;DHT22;9685;54.338;18.672;2023-10-13T09:58:42;13.00;79.90
19106;DHT22;9685;54.338;18.672;2023-10-13T10:01:19;13.00;80.80
19106;DHT22;9685;54.338;18.672;2023-10-13T10:03:48;13.10;79.60
19106;DHT22;9685;54.338;18.672;2023-10-13T10:06:34;13.10;81.50
19106;DHT22;9685;54.338;18.672;2023-10-13T10:09:05;13.20;81.20
19106;DHT22;9685;54.338;18.672;2023-10-13T10:12:01;13.10;82.90
19106;DHT22;9685;54.338;18.672;2023-10-13T10:15:01;13.20;84.40
19106;DHT22;9685;54.338;18.672;2023-10-13T10:17:39;13.20;88.00
19106;DHT22;9685;54.338;18.672;2023-10-13T10:20:08;13.40;87.40
19106;DHT22;9685;54.338;18.672;2023-10-13T10:22:55;13.50;84.20
19106;DHT22;9685;54.338;18.672;2023-10-13T10:25:29;13.70;81.40
19106;DHT22;9685;54.338;18.672;2023-10-13T10:28:01;13.80;82.50
19106;DHT22;9685;54.338;18.672;2023-10-13T10:30:32;14.00;78.60
19106;DHT22;9685;54.338;18.672;2023-10-13T10:33:00;14.00;78.00
19106;DHT22;9685;54.338;18.672;2023-10-13T10:35:33;14.20;77.10
19106;DHT22;9685;54.338;18.672;2023-10-13T10:38:09;14.30;74.80
19106;DHT22;9685;54.338;18.672;2023-10-13T10:40:51;14.40;75.20
19106;DHT22;9685;54.338;18.672;2023-10-13T10:43:26;14.40;70.50
19106;DHT22;9685;54.338;18.672;2023-10-13T10:45:55;14.50;71.60
19106;DHT22;9685;54.338;18.672;2023-10-13T10:48:26;14.50;69.80
19106;DHT22;9685;54.338;18.672;2023-10-13T10:51:00;14.50;70.50
19106;DHT22;9685;54.338;18.672;2023-10-13T10:53:34;14.60;67.80
19106;DHT22;9685;54.338;18.672;2023-10-13T10:56:10;14.70;65.30
19106;DHT22;9685;54.338;18.672;2023-10-13T10:58:47;14.60;88.90
19106;DHT22;9685;54.338;18.672;2023-10-13T11:01:14;14.70;62.50
19106;DHT22;9685;54.338;18.672;2023-10-13T11:03:56;14.70;60.80
19106;DHT22;9685;54.338;18.672;2023-10-13T11:06:25;14.80;57.30
19106;DHT22;9685;54.338;18.672;2023-10-13T11:09:03;14.80;56.50
19106;DHT22;9685;54.338;18.672;2023-10-13T11:11:33;14.80;55.40
19106;DHT22;9685;54.338;18.672;2023-10-13T11:14:01;14.90;55.00
19106;DHT22;9685;54.338;18.672;2023-10-13T11:16:47;15.00;55.20
19106;DHT22;9685;54.338;18.672;2023-10-13T11:19:17;15.10;54.70
19106;DHT22;9685;54.338;18.672;2023-10-13T11:21:52;15.20;55.60
19106;DHT22;9685;54.338;18.672;2023-10-13T11:24:21;15.20;55.10
19106;DHT22;9685;54.338;18.672;2023-10-13T11:26:48;15.30;50.00
19106;DHT22;9685;54.338;18.672;2023-10-13T11:29:16;15.30;55.20
19106;DHT22;9685;54.338;18.672;2023-10-13T11:31:48;15.30;53.10
19106;DHT22;9685;54.338;18.672;2023-10-13T11:34:23;15.30;54.90
19106;DHT22;9685;54.338;18.672;2023-10-13T11:36:50;15.30;52.90
19106;DHT22;9685;54.338;18.672;2023-10-13T11:39:17;15.30;52.90
19106;DHT22;9685;54.338;18.672;2023-10-13T11:42:00;15.40;53.90
19106;DHT22;9685;54.338;18.672;2023-10-13T11:44:26;15.40;54.10
19106;DHT22;9685;54.338;18.672;2023-10-13T11:47:09;15.40;55.10
19106;DHT22;9685;54.338;18.672;2023-10-13T11:49:50;15.40;56.10
19106;DHT22;9685;54.338;18.672;2023-10-13T11:52:22;15.40;56.00
19106;DHT22;9685;54.338;18.672;2023-10-13T11:54:52;15.40;54.40
19106;DHT22;9685;54.338;18.672;2023-10-13T11:57:20;15.40;56.70
19106;DHT22;9685;54.338;18.672;2023-10-13T11:59:48;15.50;58.00
19106;DHT22;9685;54.338;18.672;2023-10-13T12:02:21;15.60;58.70
19106;DHT22;9685;54.338;18.672;2023-10-13T12:05:06;15.70;59.40
19106;DHT22;9685;54.338;18.672;2023-10-13T12:07:52;15.80;61.10
19106;DHT22;9685;54.338;18.672;2023-10-13T12:10:29;15.90;60.40
19106;DHT22;9685;54.338;18.672;2023-10-13T12:13:16;16.00;60.80
19106;DHT22;9685;54.338;18.672;2023-10-13T12:15:43;16.20;60.50
19106;DHT22;9685;54.338;18.672;2023-10-13T12:18:18;16.40;62.50
19106;DHT22;9685;54.338;18.672;2023-10-13T12:20:46;16.50;60.20
19106;DHT22;9685;54.338;18.672;2023-10-13T12:23:15;16.50;59.30
19106;DHT22;9685;54.338;18.672;2023-10-13T12:25:46;16.60;61.20
19106;DHT22;9685;54.338;18.672;2023-10-13T12:28:27;16.50;60.30
19106;DHT22;9685;54.338;18.672;2023-10-13T12:31:03;16.40;59.00
19106;DHT22;9685;54.338;18.672;2023-10-13T12:33:32;16.40;60.90
19106;DHT22;9685;54.338;18.672;2023-10-13T12:36:06;16.30;59.60
19106;DHT22;9685;54.338;18.672;2023-10-13T12:38:35;16.40;62.80
19106;DHT22;9685;54.338;18.672;2023-10-13T12:41:20;16.50;62.80
19106;DHT22;9685;54.338;18.672;2023-10-13T12:44:06;16.60;63.10
19106;DHT22;9685;54.338;18.672;2023-10-13T12:46:51;16.60;63.50
19106;DHT22;9685;54.338;18.672;2023-10-13T12:49:36;16.60;62.70
19106;DHT22;9685;54.338;18.672;2023-10-13T12:52:17;16.60;62.80
19106;DHT22;9685;54.338;18.672;2023-10-13T12:54:46;16.60;65.00
19106;DHT22;9685;54.338;18.672;2023-10-13T12:57:24;16.50;65.50
19106;DHT22;9685;54.338;18.672;2023-10-13T12:59:53;16.50;66.60
19106;DHT22;9685;54.338;18.672;2023-10-13T13:02:20;16.40;68.90
19106;DHT22;9685;54.338;18.672;2023-10-13T13:04:47;16.50;69.80
19106;DHT22;9685;54.338;18.672;2023-10-13T13:07:20;16.40;70.80
19106;DHT22;9685;54.338;18.672;2023-10-13T13:09:47;16.40;71.90
19106;DHT22;9685;54.338;18.672;2023-10-13T13:12:14;16.40;72.50
19106;DHT22;9685;54.338;18.672;2023-10-13T13:14:43;16.40;94.40
19106;DHT22;9685;54.338;18.672;2023-10-13T13:17:14;16.40;74.80
19106;DHT22;9685;54.338;18.672;2023-10-13T13:19:41;16.40;78.20
19106;DHT22;9685;54.338;18.672;2023-10-13T13:22:09;16.40;78.20
19106;DHT22;9685;54.338;18.672;2023-10-13T13:24:38;16.40;80.20
19106;DHT22;9685;54.338;18.672;2023-10-13T13:27:09;16.40;82.20
19106;DHT22;9685;54.338;18.672;2023-10-13T13:29:40;16.40;85.90
19106;DHT22;9685;54.338;18.672;2023-10-13T13:32:07;16.40;88.10
19106;DHT22;9685;54.338;18.672;2023-10-13T13:34:45;16.40;90.00
19106;DHT22;9685;54.338;18.672;2023-10-13T13:37:20;16.30;92.40
19106;DHT22;9685;54.338;18.672;2023-10-13T13:39:48;16.40;94.40
19106;DHT22;9685;54.338;18.672;2023-10-13T13:42:19;16.30;97.70
19106;DHT22;9685;54.338;18.672;2023-10-13T13:44:46;16.30;99.90
19106;DHT22;9685;54.338;18.672;2023-10-13T13:47:13;16.20;99.90
19106;DHT22;9685;54.338;18.672;2023-10-13T13:49:41;16.20;99.90
19106;DHT22;9685;54.338;18.672;2023-10-13T13:52:18;16.10;99.90
19106;DHT22;9685;54.338;18.672;2023-10-13T13:54:48;16.10;99.90
19106;DHT22;9685;54.338;18.672;2023-10-13T13:57:16;16.10;99.90
19106;DHT22;9685;54.338;18.672;2023-10-13T13:59:43;16.00;99.90
19106;DHT22;9685;54.338;18.672;2023-10-13T14:02:11;16.00;99.90
19106;DHT22;9685;54.338;18.672;2023-10-13T14:04:47;16.00;99.90
19106;DHT22;9685;54.338;18.672;2023-10-13T14:07:19;16.00;99.90
19106;DHT22;9685;54.338;18.672;2023-10-13T14:09:47;16.00;99.90
19106;DHT22;9685;54.338;18.672;2023-10-13T14:12:18;16.00;99.90
19106;DHT22;9685;54.338;18.672;2023-10-13T14:15:02;16.00;99.90
19106;DHT22;9685;54.338;18.672;2023-10-13T14:17:29;16.00;99.90
19106;DHT22;9685;54.338;18.672;2023-10-13T14:20:03;16.00;99.90
19106;DHT22;9685;54.338;18.672;2023-10-13T14:22:42;16.00;99.90
19106;DHT22;9685;54.338;18.672;2023-10-13T14:25:13;16.10;99.90
19106;DHT22;9685;54.338;18.672;2023-10-13T14:27:40;16.10;99.90
19106;DHT22;9685;54.338;18.672;2023-10-13T14:30:09;16.00;99.90
19106;DHT22;9685;54.338;18.672;2023-10-13T14:32:44;16.00;99.90
19106;DHT22;9685;54.338;18.672;2023-10-13T14:35:11;16.00;99.90
19106;DHT22;9685;54.338;18.672;2023-10-13T14:37:42;16.00;99.90
19106;DHT22;9685;54.338;18.672;2023-10-13T14:40:09;16.00;99.90
19106;DHT22;9685;54.338;18.672;2023-10-13T14:42:39;16.00;99.90
19106;DHT22;9685;54.338;18.672;2023-10-13T14:45:07;16.00;99.90
19106;DHT22;9685;54.338;18.672;2023-10-13T14:47:38;15.90;99.90
19106;DHT22;9685;54.338;18.672;2023-10-13T14:50:06;16.00;99.90
19106;DHT22;9685;54.338;18.672;2023-10-13T14:52:40;16.10;99.90
19106;DHT22;9685;54.338;18.672;2023-10-13T14:55:10;16.00;99.90
19106;DHT22;9685;54.338;18.672;2023-10-13T14:57:45;16.00;99.90
19106;DHT22;9685;54.338;18.672;2023-10-13T15:00:13;16.00;99.90
19106;DHT22;9685;54.338;18.672;2023-10-13T15:02:41;16.00;99.90
19106;DHT22;9685;54.338;18.672;2023-10-13T15:05:09;16.00;99.90
19106;DHT22;9685;54.338;18.672;2023-10-13T15:07:42;16.00;99.90
19106;DHT22;9685;54.338;18.672;2023-10-13T15:10:13;16.10;99.90
19106;DHT22;9685;54.338;18.672;2023-10-13T15:12:41;16.10;99.90
19106;DHT22;9685;54.338;18.672;2023-10-13T15:15:10;16.10;99.90
19106;DHT22;9685;54.338;18.672;2023-10-13T15:17:42;16.10;99.90
19106;DHT22;9685;54.338;18.672;2023-10-13T15:20:09;16.20;99.90
19106;DHT22;9685;54.338;18.672;2023-10-13T15:22:41;16.20;99.90
19106;DHT22;9685;54.338;18.672;2023-10-13T15:25:09;16.20;99.90
19106;DHT22;9685;54.338;18.672;2023-10-13T15:27:45;16.20;99.90
19106;DHT22;9685;54.338;18.672;2023-10-13T15:30:21;16.20;99.90
19106;DHT22;9685;54.338;18.672;2023-10-13T15:32:49;16.30;99.90
19106;DHT22;9685;54.338;18.672;2023-10-13T15:35:17;16.30;99.90
19106;DHT22;9685;54.338;18.672;2023-10-13T15:37:44;16.40;99.90
19106;DHT22;9685;54.338;18.672;2023-10-13T15:40:14;16.50;99.90
19106;DHT22;9685;54.338;18.672;2023-10-13T15:42:42;16.40;99.90
19106;DHT22;9685;54.338;18.672;2023-10-13T15:45:12;16.60;99.90
19106;DHT22;9685;54.338;18.672;2023-10-13T15:47:46;16.60;99.90
19106;DHT22;9685;54.338;18.672;2023-10-13T15:50:14;16.60;99.90
19106;DHT22;9685;54.338;18.672;2023-10-13T15:52:44;16.60;99.90
19106;DHT22;9685;54.338;18.672;2023-10-13T15:55:13;16.60;99.90
19106;DHT22;9685;54.338;18.672;2023-10-13T15:57:40;16.70;99.90
19106;DHT22;9685;54.338;18.672;2023-10-13T16:00:09;16.70;99.90
19106;DHT22;9685;54.338;18.672;2023-10-13T16:02:52;16.80;99.90
19106;DHT22;9685;54.338;18.672;2023-10-13T16:05:21;17.00;99.90
19106;DHT22;9685;54.338;18.672;2023-10-13T16:07:50;17.00;99.90
19106;DHT22;9685;54.338;18.672;2023-10-13T16:10:20;17.10;99.90
19106;DHT22;9685;54.338;18.672;2023-10-13T16:12:47;17.10;99.90
19106;DHT22;9685;54.338;18.672;2023-10-13T16:15:14;17.20;99.90
19106;DHT22;9685;54.338;18.672;2023-10-13T16:17:41;17.20;99.90
19106;DHT22;9685;54.338;18.672;2023-10-13T16:20:10;17.30;99.90